sensor_id;sensor_type;location;lat;lon;timestamp;pressure;altitude;pressure_sealevel;temperature;humidity
38197;BME280;26543;51.976;4.616;2023-03-15T00:01:18;53115.31;;;-140.72;100.00
38197;BME280;26543;51.976;4.616;2023-03-15T00:03:44;53133.59;;;-140.72;100.00
38197;BME280;26543;51.976;4.616;2023-03-15T00:06:10;53113.28;;;-140.72;100.00
38197;BME280;26543;51.976;4.616;2023-03-15T00:08:35;53145.75;;;-140.72;100.00
38197;BME280;26543;51.976;4.616;2023-03-15T00:11:01;53090.97;;;-140.72;100.00
38197;BME280;26543;51.976;4.616;2023-03-15T00:13:26;53129.53;;;-140.72;100.00
38197;BME280;26543;51.976;4.616;2023-03-15T00:15:53;53125.47;;;-140.72;100.00
38197;BME280;26543;51.976;4.616;2023-03-15T00:18:20;53123.44;;;-140.72;100.00
38197;BME280;26543;51.976;4.616;2023-03-15T00:20:45;53111.25;;;-140.72;100.00
38197;BME280;26543;51.976;4.616;2023-03-15T00:23:11;53143.72;;;-140.72;100.00
38197;BME280;26543;51.976;4.616;2023-03-15T00:25:36;53125.47;;;-140.72;100.00
38197;BME280;26543;51.976;4.616;2023-03-15T00:28:02;53123.44;;;-140.72;100.00
38197;BME280;26543;51.976;4.616;2023-03-15T00:30:27;53143.72;;;-140.72;100.00
38197;BME280;26543;51.976;4.616;2023-03-15T00:32:52;53123.44;;;-140.72;100.00
38197;BME280;26543;51.976;4.616;2023-03-15T00:35:18;53117.34;;;-140.72;100.00
38197;BME280;26543;51.976;4.616;2023-03-15T00:37:43;53117.34;;;-140.72;100.00
38197;BME280;26543;51.976;4.616;2023-03-15T00:40:09;53133.59;;;-140.72;100.00
38197;BME280;26543;51.976;4.616;2023-03-15T00:42:34;53093.00;;;-140.72;100.00
38197;BME280;26543;51.976;4.616;2023-03-15T00:44:59;53127.50;;;-140.72;100.00
38197;BME280;26543;51.976;4.616;2023-03-15T00:47:24;53157.94;;;-140.72;100.00
38197;BME280;26543;51.976;4.616;2023-03-15T00:49:50;53139.69;;;-140.72;100.00
38197;BME280;26543;51.976;4.616;2023-03-15T00:52:15;53153.88;;;-140.72;100.00
38197;BME280;26543;51.976;4.616;2023-03-15T00:54:41;53155.91;;;-140.72;100.00
38197;BME280;26543;51.976;4.616;2023-03-15T00:57:07;53162.00;;;-140.72;100.00
38197;BME280;26543;51.976;4.616;2023-03-15T00:59:32;53131.56;;;-140.72;100.00
38197;BME280;26543;51.976;4.616;2023-03-15T01:02:03;53157.94;;;-140.72;100.00
38197;BME280;26543;51.976;4.616;2023-03-15T01:04:28;53176.22;;;-140.72;100.00
38197;BME280;26543;51.976;4.616;2023-03-15T01:06:53;53147.78;;;-140.72;100.00
38197;BME280;26543;51.976;4.616;2023-03-15T01:09:18;53123.44;;;-140.72;100.00
38197;BME280;26543;51.976;4.616;2023-03-15T01:11:44;53129.53;;;-140.72;100.00
38197;BME280;26543;51.976;4.616;2023-03-15T01:14:09;53149.81;;;-140.72;100.00
38197;BME280;26543;51.976;4.616;2023-03-15T01:16:34;53145.75;;;-140.72;100.00
38197;BME280;26543;51.976;4.616;2023-03-15T01:19:00;53153.88;;;-140.72;100.00
38197;BME280;26543;51.976;4.616;2023-03-15T01:21:25;53186.34;;;-140.72;100.00
38197;BME280;26543;51.976;4.616;2023-03-15T01:23:50;53157.94;;;-140.72;100.00
38197;BME280;26543;51.976;4.616;2023-03-15T01:26:17;53149.81;;;-140.72;100.00
38197;BME280;26543;51.976;4.616;2023-03-15T01:28:42;53125.47;;;-140.72;100.00
38197;BME280;26543;51.976;4.616;2023-03-15T01:31:10;53147.78;;;-140.72;100.00
38197;BME280;26543;51.976;4.616;2023-03-15T01:33:38;53125.47;;;-140.72;100.00
38197;BME280;26543;51.976;4.616;2023-03-15T01:36:04;53153.88;;;-140.72;100.00
38197;BME280;26543;51.976;4.616;2023-03-15T01:38:30;53168.09;;;-140.72;100.00
38197;BME280;26543;51.976;4.616;2023-03-15T01:40:56;53198.53;;;-140.72;100.00
38197;BME280;26543;51.976;4.616;2023-03-15T01:43:24;53153.88;;;-140.72;100.00
38197;BME280;26543;51.976;4.616;2023-03-15T01:48:22;53119.38;;;-140.72;100.00
38197;BME280;26543;51.976;4.616;2023-03-15T01:50:49;53196.50;;;-140.72;100.00
38197;BME280;26543;51.976;4.616;2023-03-15T01:53:16;53188.38;;;-140.72;100.00
38197;BME280;26543;51.976;4.616;2023-03-15T01:55:41;53166.06;;;-140.72;100.00
38197;BME280;26543;51.976;4.616;2023-03-15T02:00:41;53194.47;;;-140.72;100.00
38197;BME280;26543;51.976;4.616;2023-03-15T02:03:11;53157.94;;;-140.72;100.00
38197;BME280;26543;51.976;4.616;2023-03-15T02:08:10;53147.78;;;-140.72;100.00
38197;BME280;26543;51.976;4.616;2023-03-15T02:10:41;53190.41;;;-140.72;100.00
38197;BME280;26543;51.976;4.616;2023-03-15T02:13:10;53139.69;;;-140.72;100.00
38197;BME280;26543;51.976;4.616;2023-03-15T02:15:36;53166.06;;;-140.72;100.00
38197;BME280;26543;51.976;4.616;2023-03-15T02:18:01;53168.09;;;-140.72;100.00
38197;BME280;26543;51.976;4.616;2023-03-15T02:20:34;53149.81;;;-140.72;100.00
38197;BME280;26543;51.976;4.616;2023-03-15T02:23:05;53135.63;;;-140.72;100.00
38197;BME280;26543;51.976;4.616;2023-03-15T02:25:37;53149.81;;;-140.72;100.00
38197;BME280;26543;51.976;4.616;2023-03-15T02:28:05;53168.09;;;-140.72;100.00
38197;BME280;26543;51.976;4.616;2023-03-15T02:30:31;53162.00;;;-140.72;100.00
38197;BME280;26543;51.976;4.616;2023-03-15T02:32:56;53176.22;;;-140.72;100.00
38197;BME280;26543;51.976;4.616;2023-03-15T02:35:23;53162.00;;;-140.72;100.00
38197;BME280;26543;51.976;4.616;2023-03-15T02:37:49;53139.69;;;-140.72;100.00
38197;BME280;26543;51.976;4.616;2023-03-15T02:40:19;53182.28;;;-140.72;100.00
38197;BME280;26543;51.976;4.616;2023-03-15T02:42:45;53133.59;;;-140.72;100.00
38197;BME280;26543;51.976;4.616;2023-03-15T02:45:11;53184.31;;;-140.72;100.00
38197;BME280;26543;51.976;4.616;2023-03-15T02:47:37;53141.69;;;-140.72;100.00
38197;BME280;26543;51.976;4.616;2023-03-15T02:50:02;53164.03;;;-140.72;100.00
38197;BME280;26543;51.976;4.616;2023-03-15T02:52:27;53170.13;;;-140.72;100.00
38197;BME280;26543;51.976;4.616;2023-03-15T02:54:53;53188.38;;;-140.72;100.00
38197;BME280;26543;51.976;4.616;2023-03-15T02:57:18;53176.22;;;-140.72;100.00
38197;BME280;26543;51.976;4.616;2023-03-15T02:59:43;53157.94;;;-140.72;100.00
38197;BME280;26543;51.976;4.616;2023-03-15T03:02:22;53204.63;;;-140.72;100.00
38197;BME280;26543;51.976;4.616;2023-03-15T03:04:47;53125.47;;;-140.72;100.00
38197;BME280;26543;51.976;4.616;2023-03-15T03:07:20;53178.22;;;-140.72;100.00
38197;BME280;26543;51.976;4.616;2023-03-15T03:09:45;53184.31;;;-140.72;100.00
38197;BME280;26543;51.976;4.616;2023-03-15T03:14:55;53162.00;;;-140.72;100.00
38197;BME280;26543;51.976;4.616;2023-03-15T03:17:21;53172.16;;;-140.72;100.00
38197;BME280;26543;51.976;4.616;2023-03-15T03:19:46;53143.72;;;-140.72;100.00
38197;BME280;26543;51.976;4.616;2023-03-15T03:22:11;53166.06;;;-140.72;100.00
38197;BME280;26543;51.976;4.616;2023-03-15T03:24:37;53168.09;;;-140.72;100.00
38197;BME280;26543;51.976;4.616;2023-03-15T03:27:02;53196.50;;;-140.72;100.00
38197;BME280;26543;51.976;4.616;2023-03-15T03:29:27;53172.16;;;-140.72;100.00
38197;BME280;26543;51.976;4.616;2023-03-15T03:31:55;53141.69;;;-140.72;100.00
38197;BME280;26543;51.976;4.616;2023-03-15T03:34:20;53184.31;;;-140.72;100.00
38197;BME280;26543;51.976;4.616;2023-03-15T03:36:51;53141.69;;;-140.72;100.00
38197;BME280;26543;51.976;4.616;2023-03-15T03:39:17;53129.53;;;-140.72;100.00
38197;BME280;26543;51.976;4.616;2023-03-15T03:41:42;53162.00;;;-140.72;100.00
38197;BME280;26543;51.976;4.616;2023-03-15T03:44:07;53164.03;;;-140.72;100.00
38197;BME280;26543;51.976;4.616;2023-03-15T03:46:32;53129.53;;;-140.72;100.00
38197;BME280;26543;51.976;4.616;2023-03-15T03:48:58;53178.22;;;-140.72;100.00
38197;BME280;26543;51.976;4.616;2023-03-15T03:51:24;53139.69;;;-140.72;100.00
38197;BME280;26543;51.976;4.616;2023-03-15T03:53:49;53145.75;;;-140.72;100.00
38197;BME280;26543;51.976;4.616;2023-03-15T03:56:14;53162.00;;;-140.72;100.00
38197;BME280;26543;51.976;4.616;2023-03-15T03:58:39;53174.19;;;-140.72;100.00
38197;BME280;26543;51.976;4.616;2023-03-15T04:01:05;53162.00;;;-140.72;100.00
38197;BME280;26543;51.976;4.616;2023-03-15T04:03:30;53149.81;;;-140.72;100.00
38197;BME280;26543;51.976;4.616;2023-03-15T04:05:56;53164.03;;;-140.72;100.00
38197;BME280;26543;51.976;4.616;2023-03-15T04:08:22;53166.06;;;-140.72;100.00
38197;BME280;26543;51.976;4.616;2023-03-15T04:10:48;53190.41;;;-140.72;100.00
38197;BME280;26543;51.976;4.616;2023-03-15T04:13:13;53178.22;;;-140.72;100.00
38197;BME280;26543;51.976;4.616;2023-03-15T04:15:39;53153.88;;;-140.72;100.00
38197;BME280;26543;51.976;4.616;2023-03-15T04:18:05;53139.69;;;-140.72;100.00
38197;BME280;26543;51.976;4.616;2023-03-15T04:20:30;53135.63;;;-140.72;100.00
38197;BME280;26543;51.976;4.616;2023-03-15T04:22:58;53162.00;;;-140.72;100.00
38197;BME280;26543;51.976;4.616;2023-03-15T04:25:24;53178.22;;;-140.72;100.00
38197;BME280;26543;51.976;4.616;2023-03-15T04:27:50;53180.25;;;-140.72;100.00
38197;BME280;26543;51.976;4.616;2023-03-15T04:30:25;53155.91;;;-140.72;100.00
38197;BME280;26543;51.976;4.616;2023-03-15T04:32:53;53159.97;;;-140.72;100.00
38197;BME280;26543;51.976;4.616;2023-03-15T04:35:31;53149.81;;;-140.72;100.00
38197;BME280;26543;51.976;4.616;2023-03-15T04:37:57;53174.19;;;-140.72;100.00
38197;BME280;26543;51.976;4.616;2023-03-15T04:40:23;53196.50;;;-140.72;100.00
38197;BME280;26543;51.976;4.616;2023-03-15T04:42:52;53162.00;;;-140.72;100.00
38197;BME280;26543;51.976;4.616;2023-03-15T04:45:19;53149.81;;;-140.72;100.00
38197;BME280;26543;51.976;4.616;2023-03-15T04:47:45;53153.88;;;-140.72;100.00
38197;BME280;26543;51.976;4.616;2023-03-15T04:50:10;53168.09;;;-140.72;100.00
38197;BME280;26543;51.976;4.616;2023-03-15T04:52:35;53170.13;;;-140.72;100.00
38197;BME280;26543;51.976;4.616;2023-03-15T04:55:01;53141.69;;;-140.72;100.00
38197;BME280;26543;51.976;4.616;2023-03-15T04:57:26;53141.69;;;-140.72;100.00
38197;BME280;26543;51.976;4.616;2023-03-15T04:59:51;53157.94;;;-140.72;100.00
38197;BME280;26543;51.976;4.616;2023-03-15T05:02:16;53151.84;;;-140.72;100.00
38197;BME280;26543;51.976;4.616;2023-03-15T05:04:42;53182.28;;;-140.72;100.00
38197;BME280;26543;51.976;4.616;2023-03-15T05:07:07;53153.88;;;-140.72;100.00
38197;BME280;26543;51.976;4.616;2023-03-15T05:09:32;53127.50;;;-140.72;100.00
38197;BME280;26543;51.976;4.616;2023-03-15T05:12:02;53121.41;;;-140.72;100.00
38197;BME280;26543;51.976;4.616;2023-03-15T05:14:27;53159.97;;;-140.72;100.00
38197;BME280;26543;51.976;4.616;2023-03-15T05:16:53;53186.34;;;-140.72;100.00
38197;BME280;26543;51.976;4.616;2023-03-15T05:19:19;53218.81;;;-140.72;100.00
38197;BME280;26543;51.976;4.616;2023-03-15T05:21:45;53162.00;;;-140.72;100.00
38197;BME280;26543;51.976;4.616;2023-03-15T05:24:10;53176.22;;;-140.72;100.00
38197;BME280;26543;51.976;4.616;2023-03-15T05:26:36;53168.09;;;-140.72;100.00
38197;BME280;26543;51.976;4.616;2023-03-15T05:29:01;53151.84;;;-140.72;100.00
38197;BME280;26543;51.976;4.616;2023-03-15T05:31:27;53145.75;;;-140.72;100.00
38197;BME280;26543;51.976;4.616;2023-03-15T05:33:53;53155.91;;;-140.72;100.00
38197;BME280;26543;51.976;4.616;2023-03-15T05:36:18;53147.78;;;-140.72;100.00
38197;BME280;26543;51.976;4.616;2023-03-15T05:38:43;53153.88;;;-140.72;100.00
38197;BME280;26543;51.976;4.616;2023-03-15T05:41:08;53147.78;;;-140.72;100.00
38197;BME280;26543;51.976;4.616;2023-03-15T05:43:34;53145.75;;;-140.72;100.00
38197;BME280;26543;51.976;4.616;2023-03-15T05:45:59;53170.13;;;-140.72;100.00
38197;BME280;26543;51.976;4.616;2023-03-15T05:48:24;53172.16;;;-140.72;100.00
38197;BME280;26543;51.976;4.616;2023-03-15T05:50:49;53145.75;;;-140.72;100.00
38197;BME280;26543;51.976;4.616;2023-03-15T05:53:15;53145.75;;;-140.72;100.00
38197;BME280;26543;51.976;4.616;2023-03-15T05:55:40;53153.88;;;-140.72;100.00
38197;BME280;26543;51.976;4.616;2023-03-15T05:58:05;53157.94;;;-140.72;100.00
38197;BME280;26543;51.976;4.616;2023-03-15T06:00:30;53149.81;;;-140.72;100.00
38197;BME280;26543;51.976;4.616;2023-03-15T06:02:56;53109.22;;;-140.72;100.00
38197;BME280;26543;51.976;4.616;2023-03-15T06:05:21;53170.13;;;-140.72;100.00
38197;BME280;26543;51.976;4.616;2023-03-15T06:07:46;53178.22;;;-140.72;100.00
38197;BME280;26543;51.976;4.616;2023-03-15T06:10:12;53141.69;;;-140.72;100.00
38197;BME280;26543;51.976;4.616;2023-03-15T06:12:38;53153.88;;;-140.72;100.00
38197;BME280;26543;51.976;4.616;2023-03-15T06:15:03;53180.25;;;-140.72;100.00
38197;BME280;26543;51.976;4.616;2023-03-15T06:17:28;53162.00;;;-140.72;100.00
38197;BME280;26543;51.976;4.616;2023-03-15T06:19:53;53170.13;;;-140.72;100.00
38197;BME280;26543;51.976;4.616;2023-03-15T06:22:19;53178.22;;;-140.72;100.00
38197;BME280;26543;51.976;4.616;2023-03-15T06:24:44;53157.94;;;-140.72;100.00
38197;BME280;26543;51.976;4.616;2023-03-15T06:27:10;53206.66;;;-140.72;100.00
38197;BME280;26543;51.976;4.616;2023-03-15T06:29:35;53141.69;;;-140.72;100.00
38197;BME280;26543;51.976;4.616;2023-03-15T06:32:00;53168.09;;;-140.72;100.00
38197;BME280;26543;51.976;4.616;2023-03-15T06:34:25;53162.00;;;-140.72;100.00
38197;BME280;26543;51.976;4.616;2023-03-15T06:36:51;53168.09;;;-140.72;100.00
38197;BME280;26543;51.976;4.616;2023-03-15T06:39:19;53174.19;;;-140.72;100.00
38197;BME280;26543;51.976;4.616;2023-03-15T06:41:45;53145.75;;;-140.72;100.00
38197;BME280;26543;51.976;4.616;2023-03-15T06:44:10;53147.78;;;-140.72;100.00
38197;BME280;26543;51.976;4.616;2023-03-15T06:46:35;53180.25;;;-140.72;100.00
38197;BME280;26543;51.976;4.616;2023-03-15T06:49:01;53178.22;;;-140.72;100.00
38197;BME280;26543;51.976;4.616;2023-03-15T06:51:27;53168.09;;;-140.72;100.00
38197;BME280;26543;51.976;4.616;2023-03-15T06:53:52;53135.63;;;-140.72;100.00
38197;BME280;26543;51.976;4.616;2023-03-15T06:56:18;53149.81;;;-140.72;100.00
38197;BME280;26543;51.976;4.616;2023-03-15T06:58:43;53176.22;;;-140.72;100.00
38197;BME280;26543;51.976;4.616;2023-03-15T07:01:11;53137.66;;;-140.72;100.00
38197;BME280;26543;51.976;4.616;2023-03-15T07:03:36;53135.63;;;-140.72;100.00
38197;BME280;26543;51.976;4.616;2023-03-15T07:06:01;53157.94;;;-140.72;100.00
38197;BME280;26543;51.976;4.616;2023-03-15T07:08:26;53172.16;;;-140.72;100.00
38197;BME280;26543;51.976;4.616;2023-03-15T07:10:52;53174.19;;;-140.72;100.00
38197;BME280;26543;51.976;4.616;2023-03-15T07:13:17;53172.16;;;-140.72;100.00
38197;BME280;26543;51.976;4.616;2023-03-15T07:15:43;53137.66;;;-140.72;100.00
38197;BME280;26543;51.976;4.616;2023-03-15T07:18:08;53166.06;;;-140.72;100.00
38197;BME280;26543;51.976;4.616;2023-03-15T07:20:33;53166.06;;;-140.72;100.00
38197;BME280;26543;51.976;4.616;2023-03-15T07:22:58;53157.94;;;-140.72;100.00
38197;BME280;26543;51.976;4.616;2023-03-15T07:25:24;53133.59;;;-140.72;100.00
38197;BME280;26543;51.976;4.616;2023-03-15T07:27:50;53170.13;;;-140.72;100.00
38197;BME280;26543;51.976;4.616;2023-03-15T07:30:15;53172.16;;;-140.72;100.00
38197;BME280;26543;51.976;4.616;2023-03-15T07:32:41;53133.59;;;-140.72;100.00
38197;BME280;26543;51.976;4.616;2023-03-15T07:35:06;53157.94;;;-140.72;100.00
38197;BME280;26543;51.976;4.616;2023-03-15T07:37:32;53111.25;;;-140.72;100.00
38197;BME280;26543;51.976;4.616;2023-03-15T07:39:57;53145.75;;;-140.72;100.00
38197;BME280;26543;51.976;4.616;2023-03-15T07:42:24;53135.63;;;-140.72;100.00
38197;BME280;26543;51.976;4.616;2023-03-15T07:44:49;53111.25;;;-140.72;100.00
38197;BME280;26543;51.976;4.616;2023-03-15T07:47:15;53153.88;;;-140.72;100.00
38197;BME280;26543;51.976;4.616;2023-03-15T07:49:40;53109.22;;;-140.72;100.00
38197;BME280;26543;51.976;4.616;2023-03-15T07:52:05;53133.59;;;-140.72;100.00
38197;BME280;26543;51.976;4.616;2023-03-15T07:54:31;53121.41;;;-140.72;100.00
38197;BME280;26543;51.976;4.616;2023-03-15T07:56:58;53129.53;;;-140.72;100.00
38197;BME280;26543;51.976;4.616;2023-03-15T07:59:23;53086.91;;;-140.72;100.00
38197;BME280;26543;51.976;4.616;2023-03-15T08:01:54;53147.78;;;-140.72;100.00
38197;BME280;26543;51.976;4.616;2023-03-15T08:04:19;53170.13;;;-140.72;100.00
38197;BME280;26543;51.976;4.616;2023-03-15T08:06:45;53133.59;;;-140.72;100.00
38197;BME280;26543;51.976;4.616;2023-03-15T08:09:10;53125.47;;;-140.72;100.00
38197;BME280;26543;51.976;4.616;2023-03-15T08:11:35;53123.44;;;-140.72;100.00
38197;BME280;26543;51.976;4.616;2023-03-15T08:19:09;53109.22;;;-140.72;100.00
38197;BME280;26543;51.976;4.616;2023-03-15T08:21:34;53147.78;;;-140.72;100.00
38197;BME280;26543;51.976;4.616;2023-03-15T08:24:00;53131.56;;;-140.72;100.00
38197;BME280;26543;51.976;4.616;2023-03-15T08:26:25;53151.84;;;-140.72;100.00
38197;BME280;26543;51.976;4.616;2023-03-15T08:28:50;53117.34;;;-140.72;100.00
38197;BME280;26543;51.976;4.616;2023-03-15T08:31:15;53101.13;;;-140.72;100.00
38197;BME280;26543;51.976;4.616;2023-03-15T08:33:41;53111.25;;;-140.72;100.00
38197;BME280;26543;51.976;4.616;2023-03-15T08:36:06;53141.69;;;-140.72;100.00
38197;BME280;26543;51.976;4.616;2023-03-15T08:38:31;53115.31;;;-140.72;100.00
38197;BME280;26543;51.976;4.616;2023-03-15T08:40:57;53119.38;;;-140.72;100.00
38197;BME280;26543;51.976;4.616;2023-03-15T08:43:22;53080.81;;;-140.72;100.00
38197;BME280;26543;51.976;4.616;2023-03-15T08:45:48;53103.16;;;-140.72;100.00
38197;BME280;26543;51.976;4.616;2023-03-15T08:48:14;53105.19;;;-140.72;100.00
38197;BME280;26543;51.976;4.616;2023-03-15T08:50:39;53068.66;;;-140.72;100.00
38197;BME280;26543;51.976;4.616;2023-03-15T08:53:04;53133.59;;;-140.72;100.00
38197;BME280;26543;51.976;4.616;2023-03-15T08:55:30;53086.91;;;-140.72;100.00
38197;BME280;26543;51.976;4.616;2023-03-15T08:57:55;53097.06;;;-140.72;100.00
38197;BME280;26543;51.976;4.616;2023-03-15T09:00:20;53088.94;;;-140.72;100.00
38197;BME280;26543;51.976;4.616;2023-03-15T09:02:47;53064.59;;;-140.72;100.00
38197;BME280;26543;51.976;4.616;2023-03-15T09:05:13;53072.69;;;-140.72;100.00
38197;BME280;26543;51.976;4.616;2023-03-15T09:07:39;53097.06;;;-140.72;100.00
38197;BME280;26543;51.976;4.616;2023-03-15T09:10:07;53097.06;;;-140.72;100.00
38197;BME280;26543;51.976;4.616;2023-03-15T09:12:32;53107.19;;;-140.72;100.00
38197;BME280;26543;51.976;4.616;2023-03-15T09:14:58;53066.63;;;-140.72;100.00
38197;BME280;26543;51.976;4.616;2023-03-15T09:17:23;53084.88;;;-140.72;100.00
38197;BME280;26543;51.976;4.616;2023-03-15T09:19:48;53068.66;;;-140.72;89.32
38197;BME280;26543;51.976;4.616;2023-03-15T09:22:13;53064.59;;;-140.72;65.32
38197;BME280;26543;51.976;4.616;2023-03-15T09:24:38;53058.50;;;-140.72;39.16
38197;BME280;26543;51.976;4.616;2023-03-15T09:27:04;53080.81;;;-140.72;19.67
38197;BME280;26543;51.976;4.616;2023-03-15T09:29:29;53076.75;;;-140.72;0.00
38197;BME280;26543;51.976;4.616;2023-03-15T09:31:54;53046.31;;;-140.72;0.00
38197;BME280;26543;51.976;4.616;2023-03-15T09:34:21;53086.91;;;-140.72;0.00
38197;BME280;26543;51.976;4.616;2023-03-15T09:36:46;53068.66;;;-140.72;0.00
38197;BME280;26543;51.976;4.616;2023-03-15T09:39:16;53044.28;;;-140.72;0.00
38197;BME280;26543;51.976;4.616;2023-03-15T09:41:43;53074.72;;;-140.72;0.00
38197;BME280;26543;51.976;4.616;2023-03-15T09:49:18;53034.16;;;-140.72;0.00
38197;BME280;26543;51.976;4.616;2023-03-15T09:51:54;53005.72;;;-140.72;0.00
38197;BME280;26543;51.976;4.616;2023-03-15T09:57:00;53068.66;;;-140.72;0.00
38197;BME280;26543;51.976;4.616;2023-03-15T10:00:00;53013.84;;;-140.72;0.00
38197;BME280;26543;51.976;4.616;2023-03-15T10:02:26;52993.56;;;-140.72;0.00
38197;BME280;26543;51.976;4.616;2023-03-15T10:04:57;53030.09;;;-140.72;0.00
38197;BME280;26543;51.976;4.616;2023-03-15T10:07:30;53019.94;;;-140.72;0.00
38197;BME280;26543;51.976;4.616;2023-03-15T10:09:56;53024.00;;;-140.72;0.00
38197;BME280;26543;51.976;4.616;2023-03-15T10:17:49;53019.94;;;-140.72;0.00
38197;BME280;26543;51.976;4.616;2023-03-15T10:23:17;52991.53;;;-140.72;0.00
38197;BME280;26543;51.976;4.616;2023-03-15T10:25:51;53019.94;;;-140.72;0.00
38197;BME280;26543;51.976;4.616;2023-03-15T10:28:26;53003.69;;;-140.72;0.00
38197;BME280;26543;51.976;4.616;2023-03-15T10:30:52;53001.66;;;-140.72;0.00
38197;BME280;26543;51.976;4.616;2023-03-15T10:36:02;52950.94;;;-140.72;0.00
38197;BME280;26543;51.976;4.616;2023-03-15T10:41:38;52979.34;;;-140.72;0.00
38197;BME280;26543;51.976;4.616;2023-03-15T10:46:41;52997.63;;;-140.72;0.00
38197;BME280;26543;51.976;4.616;2023-03-15T10:49:11;52932.66;;;-140.72;0.00
38197;BME280;26543;51.976;4.616;2023-03-15T10:51:56;52936.72;;;-140.72;0.00
38197;BME280;26543;51.976;4.616;2023-03-15T10:54:22;52983.41;;;-140.72;0.00
38197;BME280;26543;51.976;4.616;2023-03-15T10:59:23;52910.34;;;-140.72;0.00
38197;BME280;26543;51.976;4.616;2023-03-15T11:01:50;52898.16;;;-140.72;0.00
38197;BME280;26543;51.976;4.616;2023-03-15T11:04:17;52812.94;;;-140.72;0.00
38197;BME280;26543;51.976;4.616;2023-03-15T11:09:22;52735.81;;;-140.72;0.00
38197;BME280;26543;51.976;4.616;2023-03-15T11:14:16;52721.63;;;-140.72;0.00
38197;BME280;26543;51.976;4.616;2023-03-15T11:16:41;52674.94;;;-140.72;0.00
38197;BME280;26543;51.976;4.616;2023-03-15T11:19:11;52707.41;;;-140.72;0.00
38197;BME280;26543;51.976;4.616;2023-03-15T11:21:39;52709.44;;;-140.72;0.00
38197;BME280;26543;51.976;4.616;2023-03-15T11:24:05;52681.03;;;-140.72;0.00
38197;BME280;26543;51.976;4.616;2023-03-15T11:26:37;52670.88;;;-140.72;0.00
38197;BME280;26543;51.976;4.616;2023-03-15T11:37:57;52565.38;;;-140.72;0.00
38197;BME280;26543;51.976;4.616;2023-03-15T11:40:29;52522.75;;;-140.72;0.00
38197;BME280;26543;51.976;4.616;2023-03-15T11:47:57;52573.50;;;-140.72;0.00
38197;BME280;26543;51.976;4.616;2023-03-15T11:50:27;52632.34;;;-140.72;0.00
38197;BME280;26543;51.976;4.616;2023-03-15T11:52:54;52565.38;;;-140.72;0.00
38197;BME280;26543;51.976;4.616;2023-03-15T11:55:26;52494.34;;;-140.72;0.00
38197;BME280;26543;51.976;4.616;2023-03-15T11:57:52;52605.94;;;-140.72;0.00
38197;BME280;26543;51.976;4.616;2023-03-15T12:02:57;52506.53;;;-140.72;0.00
38197;BME280;26543;51.976;4.616;2023-03-15T12:08:15;52512.59;;;-140.72;0.00
38197;BME280;26543;51.976;4.616;2023-03-15T12:10:42;52504.50;;;-140.72;0.00
38197;BME280;26543;51.976;4.616;2023-03-15T12:13:16;52528.84;;;-140.72;0.00
38197;BME280;26543;51.976;4.616;2023-03-15T12:15:42;52530.88;;;-140.72;0.00
38197;BME280;26543;51.976;4.616;2023-03-15T12:18:11;52445.66;;;-140.72;0.00
38197;BME280;26543;51.976;4.616;2023-03-15T12:20:38;52532.91;;;-140.72;0.00
38197;BME280;26543;51.976;4.616;2023-03-15T12:25:31;52565.38;;;-140.72;0.00
38197;BME280;26543;51.976;4.616;2023-03-15T12:27:59;52541.03;;;-140.72;0.00
38197;BME280;26543;51.976;4.616;2023-03-15T12:30:32;52543.03;;;-140.72;0.00
38197;BME280;26543;51.976;4.616;2023-03-15T12:33:00;52480.16;;;-140.72;0.00
38197;BME280;26543;51.976;4.616;2023-03-15T12:35:28;52504.50;;;-140.72;0.00
38197;BME280;26543;51.976;4.616;2023-03-15T12:37:53;52419.28;;;-140.72;0.00
38197;BME280;26543;51.976;4.616;2023-03-15T12:52:59;52567.41;;;-140.72;0.00
38197;BME280;26543;51.976;4.616;2023-03-15T12:55:30;52536.97;;;-140.72;0.00
38197;BME280;26543;51.976;4.616;2023-03-15T12:57:56;52524.78;;;-140.72;0.00
38197;BME280;26543;51.976;4.616;2023-03-15T13:00:24;52472.03;;;-140.72;0.00
38197;BME280;26543;51.976;4.616;2023-03-15T13:05:39;52577.53;;;-140.72;0.00
38197;BME280;26543;51.976;4.616;2023-03-15T13:08:20;52563.34;;;-140.72;0.00
38197;BME280;26543;51.976;4.616;2023-03-15T13:13:35;52516.66;;;-140.72;0.00
38197;BME280;26543;51.976;4.616;2023-03-15T13:19:12;52530.88;;;-140.72;0.00
38197;BME280;26543;51.976;4.616;2023-03-15T13:21:40;52474.06;;;-140.72;0.00
38197;BME280;26543;51.976;4.616;2023-03-15T13:24:13;52510.59;;;-140.72;0.00
38197;BME280;26543;51.976;4.616;2023-03-15T13:29:20;52502.47;;;-140.72;0.00
38197;BME280;26543;51.976;4.616;2023-03-15T13:31:46;52518.69;;;-140.72;0.00
38197;BME280;26543;51.976;4.616;2023-03-15T13:34:23;52492.31;;;-140.72;0.00
38197;BME280;26543;51.976;4.616;2023-03-15T13:36:55;52514.63;;;-140.72;0.00
38197;BME280;26543;51.976;4.616;2023-03-15T13:39:22;52518.69;;;-140.72;0.00
38197;BME280;26543;51.976;4.616;2023-03-15T13:41:48;52534.94;;;-140.72;0.00
38197;BME280;26543;51.976;4.616;2023-03-15T13:44:20;52622.19;;;-140.72;0.00
38197;BME280;26543;51.976;4.616;2023-03-15T13:46:46;52541.03;;;-140.72;0.00
38197;BME280;26543;51.976;4.616;2023-03-15T13:49:12;52638.41;;;-140.72;0.00
38197;BME280;26543;51.976;4.616;2023-03-15T13:51:37;52583.63;;;-140.72;0.00
38197;BME280;26543;51.976;4.616;2023-03-15T13:59:31;52569.44;;;-140.72;0.00
38197;BME280;26543;51.976;4.616;2023-03-15T14:01:56;52539.00;;;-140.72;0.00
38197;BME280;26543;51.976;4.616;2023-03-15T14:04:22;52581.59;;;-140.72;0.00
38197;BME280;26543;51.976;4.616;2023-03-15T14:06:49;52528.84;;;-140.72;0.00
38197;BME280;26543;51.976;4.616;2023-03-15T14:09:22;52488.25;;;-140.72;0.00
38197;BME280;26543;51.976;4.616;2023-03-15T14:14:36;52532.91;;;-140.72;0.00